الصفحة الرئيسية
METAR-TAF:

METAR-TAF

مطار :

القاهرة, مصر

ميناء القاهرة الجوي

دائرة عرض: 30-08N, خط طول: 031-24E, ارتفاع: 64 متر

مراقبة الطقس الحالي

تاريخ ووقت الإصدار 14 دقيقة قبل الساعة 11:00UTC
ريح 7 عقدة من الغرب
درجة الحرارة 19°درجة مئوية
الرطوبة 52%
ضغط 1018 hPa
الرؤية 10 كم أو أكثر
غيوم متفرقة على ارتفاع 2500 قدم

METAR: HECA 171100Z 27007KT 9999 SCT025 19/09 Q1018 NOSIG

زمن: 13:14 (11:14 UTC)

توقعات

تاريخ ووقت الإصدار 2ساعات و 49 دقيقة قبل الساعة 08:25UTC
التوقعات صالحة من17 الساعة 09 UTC إلى 18 الساعة 12 UTC
ريح 9 عقدة من الجنوب الغربي
الرؤية: 6000 متر
مؤقت
من 17 الساعة 09 UTC إلى 17 الساعة 12 UTC
الرؤية: 4000 متر
العجاج
نظرية الاحتمالات 30% :
مؤقت
من 17 الساعة 12 UTC إلى 17 الساعة 15 UTC
ريح 13 عقدة من الجنوب/الجنوب الغربي
الرؤية: 3000 متر
رمل

TAF: HECA 170825Z 1709/1812 23009KT 6000 NSC TEMPO 1709/1712 4000 HZ PROB30 TEMPO 1712/1715 20013KT 3000 SA

أرصاد الطقس والتوقعات من أكثر من 4000 مطار (تقارير الطقس للمطار METAR والتنبؤ بالطقس بالمطارTAF).

المحطات المتاحة هي النقط الصفراء والحمراء على الخريطة.

حرك المؤشر فوق النقطة لمعرفة اسم المحطة.

ثم انقر لمعرفة أرصاد وتوقعات الطقس.

لتغيير الخارطة: اضغط على الأزرار الخضراء مع رمز الصليب الأسود للتكبير. على الزر الأخضر مع شرطة للتصغير، أو على الأسهم الخضراء للخرائط المجاورة.


METAR-TAF: